sensor_id;sensor_type;location;lat;lon;timestamp;pressure;altitude;pressure_sealevel;temperature;humidity
72570;BME280;60594;50.204;8.844;2024-03-08T00:01:31;100166.06;;;3.94;80.01
72570;BME280;60594;50.204;8.844;2024-03-08T00:04:17;100167.00;;;3.93;79.96
72570;BME280;60594;50.204;8.844;2024-03-08T00:07:02;100158.22;;;3.92;79.84
72570;BME280;60594;50.204;8.844;2024-03-08T00:09:46;100162.69;;;3.92;80.76
72570;BME280;60594;50.204;8.844;2024-03-08T00:12:32;100158.06;;;3.95;79.69
72570;BME280;60594;50.204;8.844;2024-03-08T00:15:17;100156.47;;;3.93;79.64
72570;BME280;60594;50.204;8.844;2024-03-08T00:18:02;100161.22;;;3.86;80.65
72570;BME280;60594;50.204;8.844;2024-03-08T00:20:47;100153.56;;;3.82;80.53
72570;BME280;60594;50.204;8.844;2024-03-08T00:23:33;100139.78;;;3.77;80.54
72570;BME280;60594;50.204;8.844;2024-03-08T00:26:17;100147.84;;;3.74;80.17
72570;BME280;60594;50.204;8.844;2024-03-08T00:29:02;100146.47;;;3.67;80.91
72570;BME280;60594;50.204;8.844;2024-03-08T00:31:48;100141.28;;;3.65;80.29
72570;BME280;60594;50.204;8.844;2024-03-08T00:34:35;100147.88;;;3.56;80.58
72570;BME280;60594;50.204;8.844;2024-03-08T00:37:21;100145.22;;;3.56;80.35
72570;BME280;60594;50.204;8.844;2024-03-08T00:40:09;100142.00;;;3.51;81.14
72570;BME280;60594;50.204;8.844;2024-03-08T00:42:55;100142.84;;;3.52;81.02
72570;BME280;60594;50.204;8.844;2024-03-08T00:45:40;100131.97;;;3.58;80.33
72570;BME280;60594;50.204;8.844;2024-03-08T00:48:27;100133.16;;;3.52;80.39
72570;BME280;60594;50.204;8.844;2024-03-08T00:51:12;100135.19;;;3.47;80.67
72570;BME280;60594;50.204;8.844;2024-03-08T00:53:57;100133.38;;;3.48;81.06
72570;BME280;60594;50.204;8.844;2024-03-08T00:56:42;100138.75;;;3.46;81.22
72570;BME280;60594;50.204;8.844;2024-03-08T00:59:27;100139.44;;;3.50;80.22
72570;BME280;60594;50.204;8.844;2024-03-08T01:02:12;100131.47;;;3.51;80.80
72570;BME280;60594;50.204;8.844;2024-03-08T01:04:57;100130.84;;;3.46;80.54
72570;BME280;60594;50.204;8.844;2024-03-08T01:07:42;100127.28;;;3.47;80.53
72570;BME280;60594;50.204;8.844;2024-03-08T01:10:27;100117.66;;;3.46;81.19
72570;BME280;60594;50.204;8.844;2024-03-08T01:13:12;100119.41;;;3.47;81.42
72570;BME280;60594;50.204;8.844;2024-03-08T01:15:57;100112.50;;;3.45;80.58
72570;BME280;60594;50.204;8.844;2024-03-08T01:18:43;100117.78;;;3.45;81.11
72570;BME280;60594;50.204;8.844;2024-03-08T01:21:28;100110.19;;;3.39;81.65
72570;BME280;60594;50.204;8.844;2024-03-08T01:24:13;100100.03;;;3.31;82.21
72570;BME280;60594;50.204;8.844;2024-03-08T01:26:58;100101.84;;;3.31;81.85
72570;BME280;60594;50.204;8.844;2024-03-08T01:29:43;100100.44;;;3.24;81.72
72570;BME280;60594;50.204;8.844;2024-03-08T01:32:28;100098.06;;;3.19;82.44
72570;BME280;60594;50.204;8.844;2024-03-08T01:35:13;100093.88;;;3.15;82.22
72570;BME280;60594;50.204;8.844;2024-03-08T01:37:58;100101.19;;;3.10;83.25
72570;BME280;60594;50.204;8.844;2024-03-08T01:40:43;100081.28;;;3.05;83.11
72570;BME280;60594;50.204;8.844;2024-03-08T01:43:29;100081.28;;;3.05;83.15
72570;BME280;60594;50.204;8.844;2024-03-08T01:46:17;100080.56;;;3.01;83.44
72570;BME280;60594;50.204;8.844;2024-03-08T01:49:03;100070.81;;;3.03;83.79
72570;BME280;60594;50.204;8.844;2024-03-08T01:51:49;100082.25;;;3.02;83.24
72570;BME280;60594;50.204;8.844;2024-03-08T01:54:34;100070.03;;;3.01;82.78
72570;BME280;60594;50.204;8.844;2024-03-08T01:57:20;100070.28;;;2.97;83.56
72570;BME280;60594;50.204;8.844;2024-03-08T02:00:06;100063.16;;;2.99;83.56
72570;BME280;60594;50.204;8.844;2024-03-08T02:02:55;100069.00;;;2.88;84.18
72570;BME280;60594;50.204;8.844;2024-03-08T02:05:42;100058.19;;;2.93;83.43
72570;BME280;60594;50.204;8.844;2024-03-08T02:08:28;100060.00;;;2.92;83.65
72570;BME280;60594;50.204;8.844;2024-03-08T02:11:14;100063.66;;;2.90;83.43
72570;BME280;60594;50.204;8.844;2024-03-08T02:14:00;100062.72;;;2.91;83.98
72570;BME280;60594;50.204;8.844;2024-03-08T02:16:45;100048.75;;;2.89;83.68
72570;BME280;60594;50.204;8.844;2024-03-08T02:19:30;100049.56;;;2.91;83.48
72570;BME280;60594;50.204;8.844;2024-03-08T02:22:15;100039.25;;;2.86;84.26
72570;BME280;60594;50.204;8.844;2024-03-08T02:25:00;100034.16;;;2.83;84.07
72570;BME280;60594;50.204;8.844;2024-03-08T02:27:48;100029.91;;;2.81;84.98
72570;BME280;60594;50.204;8.844;2024-03-08T02:30:33;100031.94;;;2.76;84.76
72570;BME280;60594;50.204;8.844;2024-03-08T02:33:18;100029.59;;;2.70;85.15
72570;BME280;60594;50.204;8.844;2024-03-08T02:36:03;100032.22;;;2.70;84.81
72570;BME280;60594;50.204;8.844;2024-03-08T02:38:48;100025.41;;;2.66;85.13
72570;BME280;60594;50.204;8.844;2024-03-08T02:41:34;100026.13;;;2.69;85.55
72570;BME280;60594;50.204;8.844;2024-03-08T02:44:19;100028.28;;;2.61;86.78
72570;BME280;60594;50.204;8.844;2024-03-08T02:47:06;100034.41;;;2.62;85.69
72570;BME280;60594;50.204;8.844;2024-03-08T02:49:51;100021.16;;;2.63;85.72
72570;BME280;60594;50.204;8.844;2024-03-08T02:52:36;100024.81;;;2.61;85.49
72570;BME280;60594;50.204;8.844;2024-03-08T02:55:21;100029.13;;;2.62;85.82
72570;BME280;60594;50.204;8.844;2024-03-08T02:58:07;100031.63;;;2.65;86.30
72570;BME280;60594;50.204;8.844;2024-03-08T03:00:54;100031.63;;;2.65;86.41
72570;BME280;60594;50.204;8.844;2024-03-08T03:03:42;100030.06;;;2.61;86.49
72570;BME280;60594;50.204;8.844;2024-03-08T03:06:27;100016.84;;;2.62;85.80
72570;BME280;60594;50.204;8.844;2024-03-08T03:09:12;100019.41;;;2.64;85.84
72570;BME280;60594;50.204;8.844;2024-03-08T03:12:01;100023.88;;;2.62;85.46
72570;BME280;60594;50.204;8.844;2024-03-08T03:14:46;100018.63;;;2.62;85.59
72570;BME280;60594;50.204;8.844;2024-03-08T03:17:32;100017.94;;;2.58;86.58
72570;BME280;60594;50.204;8.844;2024-03-08T03:20:18;100018.91;;;2.56;86.28
72570;BME280;60594;50.204;8.844;2024-03-08T03:23:11;100019.16;;;2.51;86.82
72570;BME280;60594;50.204;8.844;2024-03-08T03:25:59;100022.03;;;2.47;86.89
72570;BME280;60594;50.204;8.844;2024-03-08T03:28:44;100022.97;;;2.46;87.64
72570;BME280;60594;50.204;8.844;2024-03-08T03:31:29;100021.31;;;2.43;86.82
72570;BME280;60594;50.204;8.844;2024-03-08T03:34:14;100016.06;;;2.43;87.73
72570;BME280;60594;50.204;8.844;2024-03-08T03:37:00;100017.13;;;2.39;87.83
72570;BME280;60594;50.204;8.844;2024-03-08T03:39:45;100019.75;;;2.39;87.40
72570;BME280;60594;50.204;8.844;2024-03-08T03:42:33;100015.59;;;2.35;87.47
72570;BME280;60594;50.204;8.844;2024-03-08T03:45:19;100006.88;;;2.35;87.62
72570;BME280;60594;50.204;8.844;2024-03-08T03:48:06;99999.97;;;2.32;88.20
72570;BME280;60594;50.204;8.844;2024-03-08T03:50:51;100002.06;;;2.26;87.84
72570;BME280;60594;50.204;8.844;2024-03-08T03:53:36;100003.00;;;2.25;88.38
72570;BME280;60594;50.204;8.844;2024-03-08T03:56:25;99998.75;;;2.22;88.42
72570;BME280;60594;50.204;8.844;2024-03-08T03:59:10;99998.75;;;2.22;88.27
72570;BME280;60594;50.204;8.844;2024-03-08T04:01:55;99995.25;;;2.22;88.34
72570;BME280;60594;50.204;8.844;2024-03-08T04:04:40;99995.31;;;2.20;88.35
72570;BME280;60594;50.204;8.844;2024-03-08T04:07:25;99992.75;;;2.19;89.59
72570;BME280;60594;50.204;8.844;2024-03-08T04:10:11;99993.63;;;2.19;88.93
72570;BME280;60594;50.204;8.844;2024-03-08T04:12:56;99993.63;;;2.19;89.02
72570;BME280;60594;50.204;8.844;2024-03-08T04:15:42;99992.00;;;2.17;89.62
72570;BME280;60594;50.204;8.844;2024-03-08T04:18:28;99994.72;;;2.15;90.48
72570;BME280;60594;50.204;8.844;2024-03-08T04:21:13;99991.94;;;2.18;88.75
72570;BME280;60594;50.204;8.844;2024-03-08T04:23:58;99992.00;;;2.17;89.49
72570;BME280;60594;50.204;8.844;2024-03-08T04:26:43;99989.38;;;2.17;89.50
72570;BME280;60594;50.204;8.844;2024-03-08T04:29:28;99989.44;;;2.15;89.43
72570;BME280;60594;50.204;8.844;2024-03-08T04:32:13;99991.22;;;2.15;89.42
72570;BME280;60594;50.204;8.844;2024-03-08T04:34:58;99986.09;;;2.12;88.81
72570;BME280;60594;50.204;8.844;2024-03-08T04:37:43;99988.84;;;2.10;89.72
72570;BME280;60594;50.204;8.844;2024-03-08T04:40:28;99983.81;;;2.06;89.51
72570;BME280;60594;50.204;8.844;2024-03-08T04:43:13;99983.00;;;2.04;90.16
72570;BME280;60594;50.204;8.844;2024-03-08T04:45:59;99977.75;;;2.04;90.18
72570;BME280;60594;50.204;8.844;2024-03-08T04:48:44;99975.19;;;2.02;90.71
72570;BME280;60594;50.204;8.844;2024-03-08T04:51:29;99978.69;;;2.03;90.86
72570;BME280;60594;50.204;8.844;2024-03-08T04:54:14;99979.63;;;2.02;90.56
72570;BME280;60594;50.204;8.844;2024-03-08T04:56:59;99977.16;;;1.99;89.73
72570;BME280;60594;50.204;8.844;2024-03-08T04:59:46;99984.16;;;1.98;89.77
72570;BME280;60594;50.204;8.844;2024-03-08T05:02:31;99983.47;;;1.95;90.51
72570;BME280;60594;50.204;8.844;2024-03-08T05:05:16;99973.13;;;1.92;90.49
72570;BME280;60594;50.204;8.844;2024-03-08T05:08:01;99967.84;;;1.92;91.79
72570;BME280;60594;50.204;8.844;2024-03-08T05:10:46;99971.41;;;1.91;90.86
72570;BME280;60594;50.204;8.844;2024-03-08T05:13:31;99967.25;;;1.87;90.37
72570;BME280;60594;50.204;8.844;2024-03-08T05:16:16;99974.25;;;1.86;90.98
72570;BME280;60594;50.204;8.844;2024-03-08T05:19:02;99974.41;;;1.83;91.34
72570;BME280;60594;50.204;8.844;2024-03-08T05:21:47;99971.16;;;1.78;90.73
72570;BME280;60594;50.204;8.844;2024-03-08T05:24:32;99969.59;;;1.74;91.24
72570;BME280;60594;50.204;8.844;2024-03-08T05:27:18;99963.63;;;1.71;91.81
72570;BME280;60594;50.204;8.844;2024-03-08T05:30:03;99962.81;;;1.70;92.55
72570;BME280;60594;50.204;8.844;2024-03-08T05:32:49;99964.63;;;1.68;92.50
72570;BME280;60594;50.204;8.844;2024-03-08T05:35:33;99960.47;;;1.64;92.17
72570;BME280;60594;50.204;8.844;2024-03-08T05:38:18;99967.47;;;1.64;92.92
72570;BME280;60594;50.204;8.844;2024-03-08T05:41:04;99955.41;;;1.60;92.72
72570;BME280;60594;50.204;8.844;2024-03-08T05:43:50;99964.38;;;1.56;92.44
72570;BME280;60594;50.204;8.844;2024-03-08T05:46:35;99956.63;;;1.53;92.47
72570;BME280;60594;50.204;8.844;2024-03-08T05:49:20;99959.44;;;1.50;92.41
72570;BME280;60594;50.204;8.844;2024-03-08T05:52:06;99963.41;;;1.40;92.60
72570;BME280;60594;50.204;8.844;2024-03-08T05:54:50;99955.72;;;1.35;93.14
72570;BME280;60594;50.204;8.844;2024-03-08T05:57:36;99952.34;;;1.33;93.30
72570;BME280;60594;50.204;8.844;2024-03-08T06:00:24;99958.66;;;1.29;93.58
72570;BME280;60594;50.204;8.844;2024-03-08T06:03:08;99959.50;;;1.30;94.05
72570;BME280;60594;50.204;8.844;2024-03-08T06:05:54;99958.88;;;1.25;93.78
72570;BME280;60594;50.204;8.844;2024-03-08T06:08:38;99952.75;;;1.24;93.16
72570;BME280;60594;50.204;8.844;2024-03-08T06:11:23;99948.56;;;1.20;94.08
72570;BME280;60594;50.204;8.844;2024-03-08T06:14:08;99952.06;;;1.21;95.04
72570;BME280;60594;50.204;8.844;2024-03-08T06:16:53;99952.19;;;1.18;95.69
72570;BME280;60594;50.204;8.844;2024-03-08T06:19:38;99954.25;;;1.11;96.43
72570;BME280;60594;50.204;8.844;2024-03-08T06:22:23;99950.34;;;1.20;96.81
72570;BME280;60594;50.204;8.844;2024-03-08T06:25:08;99937.81;;;1.26;97.63
72570;BME280;60594;50.204;8.844;2024-03-08T06:27:55;99944.59;;;1.30;96.71
72570;BME280;60594;50.204;8.844;2024-03-08T06:30:41;99942.34;;;1.41;96.09
72570;BME280;60594;50.204;8.844;2024-03-08T06:33:26;99951.69;;;1.47;95.70
72570;BME280;60594;50.204;8.844;2024-03-08T06:36:11;99941.41;;;1.42;96.50
72570;BME280;60594;50.204;8.844;2024-03-08T06:38:56;99938.44;;;1.50;96.89
72570;BME280;60594;50.204;8.844;2024-03-08T06:41:42;99946.84;;;1.56;95.66
72570;BME280;60594;50.204;8.844;2024-03-08T06:44:29;99941.47;;;1.59;95.56
72570;BME280;60594;50.204;8.844;2024-03-08T06:47:15;99940.47;;;1.62;96.82
72570;BME280;60594;50.204;8.844;2024-03-08T06:50:00;99952.06;;;1.75;95.58
72570;BME280;60594;50.204;8.844;2024-03-08T06:52:45;99935.31;;;1.77;95.71
72570;BME280;60594;50.204;8.844;2024-03-08T06:55:33;99930.69;;;1.82;95.52
72570;BME280;60594;50.204;8.844;2024-03-08T06:58:17;99940.66;;;1.93;94.77
72570;BME280;60594;50.204;8.844;2024-03-08T07:01:03;99933.88;;;2.06;93.66
72570;BME280;60594;50.204;8.844;2024-03-08T07:03:52;99936.97;;;2.14;93.06
72570;BME280;60594;50.204;8.844;2024-03-08T07:06:37;99938.81;;;2.12;94.41
72570;BME280;60594;50.204;8.844;2024-03-08T07:09:21;99928.78;;;2.20;93.81
72570;BME280;60594;50.204;8.844;2024-03-08T07:12:06;99928.16;;;2.32;93.09
72570;BME280;60594;50.204;8.844;2024-03-08T07:14:52;99927.34;;;2.47;92.95
72570;BME280;60594;50.204;8.844;2024-03-08T07:17:37;99914.22;;;2.47;93.77
72570;BME280;60594;50.204;8.844;2024-03-08T07:20:23;99920.47;;;2.44;94.90
72570;BME280;60594;50.204;8.844;2024-03-08T07:23:09;99918.00;;;2.58;93.98
72570;BME280;60594;50.204;8.844;2024-03-08T07:25:55;99910.91;;;2.76;93.07
72570;BME280;60594;50.204;8.844;2024-03-08T07:28:41;99909.66;;;2.83;92.77
72570;BME280;60594;50.204;8.844;2024-03-08T07:31:26;99908.41;;;2.90;92.46
72570;BME280;60594;50.204;8.844;2024-03-08T07:34:11;99913.06;;;3.00;91.89
72570;BME280;60594;50.204;8.844;2024-03-08T07:36:56;99899.38;;;3.09;92.08
72570;BME280;60594;50.204;8.844;2024-03-08T07:39:41;99897.97;;;3.19;91.18
72570;BME280;60594;50.204;8.844;2024-03-08T07:42:26;99891.44;;;3.26;91.49
72570;BME280;60594;50.204;8.844;2024-03-08T07:45:13;99900.44;;;3.38;91.04
72570;BME280;60594;50.204;8.844;2024-03-08T07:47:58;99893.13;;;3.43;90.18
72570;BME280;60594;50.204;8.844;2024-03-08T07:50:43;99888.97;;;3.54;91.05
72570;BME280;60594;50.204;8.844;2024-03-08T07:53:27;99889.88;;;3.53;89.36
72570;BME280;60594;50.204;8.844;2024-03-08T07:56:12;99891.84;;;3.66;89.44
72570;BME280;60594;50.204;8.844;2024-03-08T07:58:58;99896.81;;;3.70;88.50
72570;BME280;60594;50.204;8.844;2024-03-08T08:01:43;99885.84;;;3.78;89.28
72570;BME280;60594;50.204;8.844;2024-03-08T08:04:29;99881.84;;;3.86;88.00
72570;BME280;60594;50.204;8.844;2024-03-08T08:07:14;99874.50;;;3.91;88.21
72570;BME280;60594;50.204;8.844;2024-03-08T08:09:59;99883.28;;;4.06;86.92
72570;BME280;60594;50.204;8.844;2024-03-08T08:12:44;99879.25;;;4.14;86.98
72570;BME280;60594;50.204;8.844;2024-03-08T08:15:30;99878.44;;;4.28;85.55
72570;BME280;60594;50.204;8.844;2024-03-08T08:18:15;99873.28;;;4.40;85.56
72570;BME280;60594;50.204;8.844;2024-03-08T08:21:01;99868.38;;;4.48;85.75
72570;BME280;60594;50.204;8.844;2024-03-08T08:23:46;99865.75;;;4.48;85.96
72570;BME280;60594;50.204;8.844;2024-03-08T08:26:30;99858.16;;;4.58;85.89
72570;BME280;60594;50.204;8.844;2024-03-08T08:29:16;99851.25;;;4.69;83.75
72570;BME280;60594;50.204;8.844;2024-03-08T08:32:00;99856.16;;;4.75;85.27
72570;BME280;60594;50.204;8.844;2024-03-08T08:34:45;99851.88;;;4.87;84.85
72570;BME280;60594;50.204;8.844;2024-03-08T08:37:31;99837.09;;;4.98;83.47
72570;BME280;60594;50.204;8.844;2024-03-08T08:40:17;99841.78;;;5.07;83.16
72570;BME280;60594;50.204;8.844;2024-03-08T08:43:03;99840.25;;;5.17;82.28
72570;BME280;60594;50.204;8.844;2024-03-08T08:45:51;99840.31;;;5.30;82.17
72570;BME280;60594;50.204;8.844;2024-03-08T08:48:39;99838.09;;;5.36;81.85
72570;BME280;60594;50.204;8.844;2024-03-08T08:51:27;99812.59;;;5.49;81.01
72570;BME280;60594;50.204;8.844;2024-03-08T08:54:12;99817.16;;;5.60;79.80
72570;BME280;60594;50.204;8.844;2024-03-08T08:56:57;99807.25;;;5.63;79.32
72570;BME280;60594;50.204;8.844;2024-03-08T08:59:42;99800.19;;;5.76;80.05
72570;BME280;60594;50.204;8.844;2024-03-08T09:02:28;99798.88;;;5.96;80.42
72570;BME280;60594;50.204;8.844;2024-03-08T09:05:13;99795.72;;;6.03;77.77
72570;BME280;60594;50.204;8.844;2024-03-08T09:08:01;99807.66;;;6.21;77.88
72570;BME280;60594;50.204;8.844;2024-03-08T09:10:47;99798.06;;;6.33;78.59
72570;BME280;60594;50.204;8.844;2024-03-08T09:13:33;99796.03;;;6.49;76.80
72570;BME280;60594;50.204;8.844;2024-03-08T09:16:18;99795.28;;;6.59;77.16
72570;BME280;60594;50.204;8.844;2024-03-08T09:19:03;99788.03;;;6.74;76.72
72570;BME280;60594;50.204;8.844;2024-03-08T09:21:49;99787.38;;;6.95;75.22
72570;BME280;60594;50.204;8.844;2024-03-08T09:24:36;99777.31;;;7.24;71.55
72570;BME280;60594;50.204;8.844;2024-03-08T09:27:20;99776.59;;;7.57;71.70
72570;BME280;60594;50.204;8.844;2024-03-08T09:30:06;99768.50;;;7.82;71.63
72570;BME280;60594;50.204;8.844;2024-03-08T09:32:51;99772.06;;;8.15;70.08
72570;BME280;60594;50.204;8.844;2024-03-08T09:35:36;99762.25;;;8.39;69.24
72570;BME280;60594;50.204;8.844;2024-03-08T09:38:21;99756.56;;;8.66;68.36
72570;BME280;60594;50.204;8.844;2024-03-08T09:41:06;99750.63;;;8.84;67.93
72570;BME280;60594;50.204;8.844;2024-03-08T09:43:51;99734.88;;;9.03;65.71
72570;BME280;60594;50.204;8.844;2024-03-08T09:46:36;99734.34;;;9.20;64.02
72570;BME280;60594;50.204;8.844;2024-03-08T09:49:21;99734.56;;;9.28;64.38
72570;BME280;60594;50.204;8.844;2024-03-08T09:52:07;99725.13;;;9.35;62.87
72570;BME280;60594;50.204;8.844;2024-03-08T09:54:52;99725.19;;;9.45;60.73
72570;BME280;60594;50.204;8.844;2024-03-08T09:57:37;99718.03;;;9.56;61.84
72570;BME280;60594;50.204;8.844;2024-03-08T10:00:22;99709.13;;;9.87;61.13
72570;BME280;60594;50.204;8.844;2024-03-08T10:03:08;99705.66;;;10.07;60.81
72570;BME280;60594;50.204;8.844;2024-03-08T10:05:53;99697.59;;;10.18;60.38
72570;BME280;60594;50.204;8.844;2024-03-08T10:08:41;99693.84;;;10.30;58.19
72570;BME280;60594;50.204;8.844;2024-03-08T10:11:26;99688.44;;;10.42;61.59
72570;BME280;60594;50.204;8.844;2024-03-08T10:14:11;99690.63;;;10.67;58.30
72570;BME280;60594;50.204;8.844;2024-03-08T10:16:57;99681.84;;;10.95;58.00
72570;BME280;60594;50.204;8.844;2024-03-08T10:19:51;99681.56;;;11.17;58.75
72570;BME280;60594;50.204;8.844;2024-03-08T10:22:36;99674.44;;;11.17;57.74
72570;BME280;60594;50.204;8.844;2024-03-08T10:25:22;99681.03;;;11.23;55.09
72570;BME280;60594;50.204;8.844;2024-03-08T10:28:09;99669.91;;;11.18;56.66
72570;BME280;60594;50.204;8.844;2024-03-08T10:30:55;99671.63;;;11.09;56.59
72570;BME280;60594;50.204;8.844;2024-03-08T10:33:43;99670.22;;;11.24;57.22
72570;BME280;60594;50.204;8.844;2024-03-08T10:36:29;99664.47;;;11.38;56.95
72570;BME280;60594;50.204;8.844;2024-03-08T10:39:22;99664.44;;;11.19;52.57
72570;BME280;60594;50.204;8.844;2024-03-08T10:42:10;99663.34;;;11.50;55.97
72570;BME280;60594;50.204;8.844;2024-03-08T10:45:06;99663.47;;;11.68;54.18
72570;BME280;60594;50.204;8.844;2024-03-08T10:48:07;99659.41;;;11.73;53.01
72570;BME280;60594;50.204;8.844;2024-03-08T10:50:53;99645.78;;;11.67;55.35
72570;BME280;60594;50.204;8.844;2024-03-08T10:53:39;99643.25;;;11.65;54.92
72570;BME280;60594;50.204;8.844;2024-03-08T10:56:26;99649.72;;;11.72;54.47
72570;BME280;60594;50.204;8.844;2024-03-08T10:59:12;99645.06;;;11.65;54.29
72570;BME280;60594;50.204;8.844;2024-03-08T11:01:58;99632.31;;;11.68;55.94
72570;BME280;60594;50.204;8.844;2024-03-08T11:04:47;99633.84;;;11.71;54.57
72570;BME280;60594;50.204;8.844;2024-03-08T11:07:34;99632.97;;;11.80;53.84
72570;BME280;60594;50.204;8.844;2024-03-08T11:10:22;99622.13;;;11.81;55.03
72570;BME280;60594;50.204;8.844;2024-03-08T11:13:34;99618.75;;;11.89;56.50
72570;BME280;60594;50.204;8.844;2024-03-08T11:21:59;99607.84;;;11.63;52.54
72570;BME280;60594;50.204;8.844;2024-03-08T11:24:44;99603.75;;;11.69;55.27
72570;BME280;60594;50.204;8.844;2024-03-08T11:27:30;99598.69;;;11.85;52.44
72570;BME280;60594;50.204;8.844;2024-03-08T11:30:21;99593.97;;;11.96;56.12
72570;BME280;60594;50.204;8.844;2024-03-08T11:33:12;99594.88;;;11.87;54.09
72570;BME280;60594;50.204;8.844;2024-03-08T11:38:57;99591.16;;;11.98;53.52
72570;BME280;60594;50.204;8.844;2024-03-08T11:41:43;99582.19;;;11.89;53.45
72570;BME280;60594;50.204;8.844;2024-03-08T11:44:30;99586.53;;;12.00;55.90
72570;BME280;60594;50.204;8.844;2024-03-08T11:47:16;99567.69;;;12.01;54.62
72570;BME280;60594;50.204;8.844;2024-03-08T11:50:01;99573.97;;;12.10;54.12
72570;BME280;60594;50.204;8.844;2024-03-08T11:52:50;99568.47;;;12.11;55.15
72570;BME280;60594;50.204;8.844;2024-03-08T11:55:35;99566.84;;;12.01;53.74
72570;BME280;60594;50.204;8.844;2024-03-08T11:58:20;99548.38;;;12.07;54.11
72570;BME280;60594;50.204;8.844;2024-03-08T12:01:06;99548.16;;;12.01;53.34
72570;BME280;60594;50.204;8.844;2024-03-08T12:03:55;99547.63;;;11.97;53.39
72570;BME280;60594;50.204;8.844;2024-03-08T12:06:43;99546.19;;;12.03;54.65
72570;BME280;60594;50.204;8.844;2024-03-08T12:09:30;99555.78;;;11.96;51.90
72570;BME280;60594;50.204;8.844;2024-03-08T12:12:15;99541.81;;;12.02;53.53
72570;BME280;60594;50.204;8.844;2024-03-08T12:15:00;99536.31;;;12.03;53.27
72570;BME280;60594;50.204;8.844;2024-03-08T12:17:48;99533.78;;;12.02;52.39
72570;BME280;60594;50.204;8.844;2024-03-08T12:20:33;99530.53;;;12.08;54.51
72570;BME280;60594;50.204;8.844;2024-03-08T12:23:18;99525.50;;;12.05;55.14
72570;BME280;60594;50.204;8.844;2024-03-08T12:26:10;99519.63;;;12.01;53.43
72570;BME280;60594;50.204;8.844;2024-03-08T12:29:21;99514.88;;;11.95;52.52
72570;BME280;60594;50.204;8.844;2024-03-08T12:32:07;99510.91;;;11.99;55.13
72570;BME280;60594;50.204;8.844;2024-03-08T12:34:52;99512.69;;;12.08;56.02
72570;BME280;60594;50.204;8.844;2024-03-08T12:37:38;99504.31;;;12.21;55.65
72570;BME280;60594;50.204;8.844;2024-03-08T12:40:28;99504.91;;;12.15;52.11
72570;BME280;60594;50.204;8.844;2024-03-08T12:43:12;99501.75;;;12.02;54.42
72570;BME280;60594;50.204;8.844;2024-03-08T12:46:00;99500.50;;;11.96;55.49
72570;BME280;60594;50.204;8.844;2024-03-08T12:48:46;99502.66;;;11.93;54.08
72570;BME280;60594;50.204;8.844;2024-03-08T12:51:34;99496.31;;;11.94;55.93
72570;BME280;60594;50.204;8.844;2024-03-08T12:54:19;99485.78;;;11.92;55.63
72570;BME280;60594;50.204;8.844;2024-03-08T12:57:08;99488.34;;;11.84;54.69
72570;BME280;60594;50.204;8.844;2024-03-08T12:59:52;99483.88;;;11.85;56.93
72570;BME280;60594;50.204;8.844;2024-03-08T13:02:39;99481.06;;;11.77;52.58
72570;BME280;60594;50.204;8.844;2024-03-08T13:05:25;99475.00;;;11.84;55.59
72570;BME280;60594;50.204;8.844;2024-03-08T13:08:10;99472.28;;;11.94;58.08
72570;BME280;60594;50.204;8.844;2024-03-08T13:10:57;99465.41;;;11.91;55.72
72570;BME280;60594;50.204;8.844;2024-03-08T13:13:44;99465.03;;;11.86;54.78
72570;BME280;60594;50.204;8.844;2024-03-08T13:16:29;99460.81;;;11.84;58.00
72570;BME280;60594;50.204;8.844;2024-03-08T13:19:14;99465.72;;;11.88;55.35
72570;BME280;60594;50.204;8.844;2024-03-08T13:21:59;99456.69;;;11.89;54.54
72570;BME280;60594;50.204;8.844;2024-03-08T13:24:44;99448.16;;;11.86;55.37
72570;BME280;60594;50.204;8.844;2024-03-08T13:27:30;99452.66;;;11.85;56.31
72570;BME280;60594;50.204;8.844;2024-03-08T13:30:15;99438.78;;;11.82;57.38
72570;BME280;60594;50.204;8.844;2024-03-08T13:33:03;99450.97;;;11.84;56.06
72570;BME280;60594;50.204;8.844;2024-03-08T13:35:51;99435.41;;;11.80;55.83
72570;BME280;60594;50.204;8.844;2024-03-08T13:38:37;99441.75;;;11.79;54.75
72570;BME280;60594;50.204;8.844;2024-03-08T13:41:22;99431.00;;;11.88;57.64
72570;BME280;60594;50.204;8.844;2024-03-08T13:44:09;99426.22;;;11.92;55.85
72570;BME280;60594;50.204;8.844;2024-03-08T13:46:54;99422.69;;;11.91;55.84
72570;BME280;60594;50.204;8.844;2024-03-08T13:49:43;99423.94;;;11.97;57.18
72570;BME280;60594;50.204;8.844;2024-03-08T13:52:28;99411.09;;;12.00;57.90
72570;BME280;60594;50.204;8.844;2024-03-08T13:55:23;99402.72;;;12.13;57.09
72570;BME280;60594;50.204;8.844;2024-03-08T13:58:08;99402.34;;;12.08;55.05
72570;BME280;60594;50.204;8.844;2024-03-08T14:00:54;99397.94;;;12.16;55.70
72570;BME280;60594;50.204;8.844;2024-03-08T14:03:40;99393.50;;;12.25;56.61
72570;BME280;60594;50.204;8.844;2024-03-08T14:06:26;99372.81;;;12.27;54.63
72570;BME280;60594;50.204;8.844;2024-03-08T14:09:11;99376.56;;;12.16;54.89
72570;BME280;60594;50.204;8.844;2024-03-08T14:12:01;99371.94;;;12.26;57.74
72570;BME280;60594;50.204;8.844;2024-03-08T14:14:48;99359.91;;;12.40;56.29
72570;BME280;60594;50.204;8.844;2024-03-08T14:17:33;99362.78;;;12.46;54.66
72570;BME280;60594;50.204;8.844;2024-03-08T14:20:18;99360.94;;;12.47;52.45
72570;BME280;60594;50.204;8.844;2024-03-08T14:23:03;99358.59;;;12.44;53.18
72570;BME280;60594;50.204;8.844;2024-03-08T14:25:51;99351.50;;;12.35;52.64
72570;BME280;60594;50.204;8.844;2024-03-08T14:28:36;99347.50;;;12.39;52.84
72570;BME280;60594;50.204;8.844;2024-03-08T14:31:22;99346.69;;;12.38;54.33
72570;BME280;60594;50.204;8.844;2024-03-08T14:34:10;99336.56;;;12.24;54.44
72570;BME280;60594;50.204;8.844;2024-03-08T14:36:55;99330.75;;;12.29;53.75
72570;BME280;60594;50.204;8.844;2024-03-08T14:39:40;99328.69;;;12.23;53.56
72570;BME280;60594;50.204;8.844;2024-03-08T14:42:25;99317.69;;;12.26;55.78
72570;BME280;60594;50.204;8.844;2024-03-08T14:45:10;99308.84;;;12.25;53.67
72570;BME280;60594;50.204;8.844;2024-03-08T14:47:56;99314.56;;;12.30;55.37
72570;BME280;60594;50.204;8.844;2024-03-08T14:50:40;99308.53;;;12.28;53.42
72570;BME280;60594;50.204;8.844;2024-03-08T14:53:26;99303.03;;;12.30;52.97